Estación Meteorológica Peña el Pijo (Robertgarden) [ 02/03/23 04:06:06 CET ]

Fecha Hora Presion(HPa) Temp (°C) Humedad % Rocio (°C) Viento ( m/s) Direccion Lluvia 1Hora(mm) Lluvia 24H(mm) LLuvia Total(mm)
2012-Mar-01 01:01:14 1012.900 2.9 73 -1.5         153.32
2012-Mar-01 02:01:49 1012.600 1.9 75 -2.1         153.32
2012-Mar-01 03:01:48 1012.500 1.8 77 -1.8         153.32
2012-Mar-01 04:03:15 1012.100 1.2 79 -2.1         153.32
2012-Mar-01 05:01:14 1012.200 0.9 81 -2.0         153.32
2012-Mar-01 06:01:14 1012.400 0.4 81 -2.5         153.32
2012-Mar-01 07:01:12 1012.600 0.2 83 -2.3         153.32
2012-Mar-01 08:01:17 1013.000 0.4 85 -1.8         153.32
2012-Mar-01 09:01:14 1013.200 3.6 84 1.1         153.32
2012-Mar-01 10:01:12 1013.100 10.1 64 3.6         153.32
2012-Mar-01 11:01:13 1013.000 15.6 45 3.6         153.32
2012-Mar-01 12:01:20 1012.900 18.9 34 2.6         153.32
2012-Mar-01 13:01:18 1012.600 19.0 27 -0.6         153.32
2012-Mar-01 14:01:14 1012.300 19.8 25 -1.0         153.32
2012-Mar-01 15:01:19 1011.800 17.2 29 -1.1 1.6 NE     153.32
2012-Mar-01 16:01:12 1011.800 16.8 32 -0.1         153.32
2012-Mar-01 17:01:16 1012.000 15.6 36 0.5         153.32
2012-Mar-01 18:01:16 1012.300 14.4 39 0.6         153.32
2012-Mar-01 19:01:14 1012.900 12.3 44 0.3         153.32
2012-Mar-01 20:01:12 1013.400 10.3 54 1.4 0.6 NNE     153.32
2012-Mar-01 21:01:18 1013.800 8.4 59 0.8         153.32
2012-Mar-01 22:01:13 1014.300 6.4 62 -0.4         153.32
2012-Mar-01 23:01:18 1014.700 3.4 69 -1.8         153.32

Temperatura Máxima:19°    Temperatura Mínima:
Presión Máxima:1014.700 Hpa    Presión Mínima:1011.800 Hpa


Volver